createdAt,value
2023-04-08T00:00:59.165Z,82.66
2023-04-08T00:02:37.013Z,82.57
2023-04-08T00:04:17.847Z,82.45
2023-04-08T00:05:47.829Z,82.66
2023-04-08T00:07:15.314Z,82.63
2023-04-08T00:08:53.873Z,82.55
2023-04-08T00:10:27.172Z,82.66
2023-04-08T00:12:01.759Z,82.74
2023-04-08T00:16:19.156Z,82.38
2023-04-08T00:20:20.784Z,82.57
2023-04-08T00:22:54.023Z,82.30
2023-04-08T00:28:26.289Z,82.63
2023-04-08T00:30:08.843Z,82.41
2023-04-08T00:31:53.292Z,82.59
2023-04-08T00:34:08.772Z,82.60
2023-04-08T00:35:39.383Z,82.71
2023-04-08T00:37:40.999Z,82.82
2023-04-08T00:42:26.024Z,82.85
2023-04-08T00:44:38.692Z,82.86
2023-04-08T00:46:56.724Z,82.67
2023-04-08T00:52:21.079Z,82.77
2023-04-08T00:56:32.673Z,82.89
2023-04-08T00:58:19.023Z,83.09
2023-04-08T00:59:52.698Z,83.11
2023-04-08T01:01:34.094Z,83.11
2023-04-08T01:03:53.027Z,83.26
2023-04-08T01:06:43.815Z,83.06
2023-04-08T01:08:30.443Z,83.11
2023-04-08T01:10:29.564Z,83.13
2023-04-08T01:12:04.066Z,82.94
2023-04-08T01:14:34.282Z,83.03
2023-04-08T01:18:49.194Z,83.02
2023-04-08T01:23:41.618Z,82.92
2023-04-08T01:28:36.894Z,82.81
2023-04-08T01:30:43.208Z,82.53
2023-04-08T01:35:30.902Z,82.99
2023-04-08T01:37:10.577Z,82.88
2023-04-08T01:38:41.262Z,82.89
2023-04-08T01:40:34.467Z,82.81
2023-04-08T01:42:03.889Z,82.82
2023-04-08T01:44:03.685Z,82.63
2023-04-08T01:46:46.024Z,82.56
2023-04-08T01:47:59.319Z,82.32
2023-04-08T01:50:10.467Z,82.60
2023-04-08T01:54:09.723Z,82.04
2023-04-08T01:55:40.778Z,82.12
2023-04-08T01:59:51.970Z,81.74
2023-04-08T02:02:26.001Z,81.79
2023-04-08T02:07:54.060Z,81.55
2023-04-08T02:09:38.495Z,81.42
2023-04-08T02:11:08.523Z,81.45
2023-04-08T02:12:45.287Z,81.61
2023-04-08T02:15:07.465Z,81.56
2023-04-08T02:16:57.605Z,81.63
2023-04-08T02:18:45.519Z,81.52
2023-04-08T02:20:15.721Z,81.44
2023-04-08T02:22:14.988Z,81.40
2023-04-08T02:26:54.907Z,81.67
2023-04-08T02:28:21.962Z,81.71
2023-04-08T02:30:03.693Z,81.33
2023-04-08T02:31:39.037Z,81.43
2023-04-08T02:37:16.180Z,81.33
2023-04-08T02:41:12.972Z,81.02
2023-04-08T04:34:26.848Z,79.89
2023-04-08T04:36:28.638Z,79.64
2023-04-08T04:40:53.560Z,79.78
2023-04-08T04:48:40.570Z,79.92
2023-04-08T04:51:02.875Z,79.91
2023-04-08T05:00:09.703Z,80.09
2023-04-08T05:02:12.249Z,79.80
2023-04-08T05:04:06.134Z,79.74
2023-04-08T05:08:07.728Z,79.77
2023-04-08T05:10:52.914Z,79.42
2023-04-08T05:13:29.970Z,79.39
2023-04-08T05:28:13.104Z,79.57
2023-04-08T05:33:08.236Z,79.76
2023-04-08T08:16:27.863Z,60.91
2023-04-08T08:31:05.832Z,62.95
2023-04-08T10:05:08.326Z,60.17
2023-04-08T10:09:42.285Z,61.06
2023-04-08T10:11:08.668Z,60.23
2023-04-08T10:13:14.510Z,60.08
2023-04-08T10:15:25.454Z,60.44
2023-04-08T10:17:36.970Z,61.27
2023-04-08T10:19:02.752Z,61.38
2023-04-08T10:20:54.493Z,60.92
2023-04-08T10:22:54.770Z,61.66
2023-04-08T10:25:59.186Z,61.28
2023-04-08T10:39:48.932Z,59.82
2023-04-08T10:53:12.980Z,56.93
2023-04-08T10:55:36.258Z,56.51
2023-04-08T10:58:24.517Z,56.00
2023-04-08T11:03:35.661Z,56.51
2023-04-08T11:05:40.801Z,55.76
2023-04-08T11:07:13.688Z,54.81
2023-04-08T11:08:42.960Z,54.69
2023-04-08T11:10:06.264Z,53.76
2023-04-08T11:21:05.776Z,53.43
2023-04-08T11:23:03.992Z,53.41
2023-04-08T11:25:21.807Z,53.90
2023-04-08T11:30:25.323Z,54.46
2023-04-08T11:32:11.113Z,53.93
2023-04-08T11:51:48.095Z,55.19
2023-04-08T11:53:38.146Z,55.47
2023-04-08T11:58:44.512Z,57.51
2023-04-08T12:27:17.840Z,55.27
2023-04-08T12:33:22.532Z,55.43
2023-04-08T12:34:51.463Z,55.18
2023-04-08T12:36:25.719Z,54.29
2023-04-08T12:37:56.282Z,53.96
2023-04-08T12:39:19.554Z,53.41
2023-04-08T12:40:52.167Z,52.76
2023-04-08T12:46:10.818Z,53.58
2023-04-08T12:47:36.375Z,52.73
2023-04-08T12:49:04.182Z,51.75
2023-04-08T12:50:41.021Z,51.15
2023-04-08T12:52:05.717Z,50.88
2023-04-08T12:53:28.251Z,50.31
2023-04-08T12:54:50.864Z,49.69
2023-04-08T12:56:13.930Z,50.24
2023-04-08T12:57:36.368Z,49.48
2023-04-08T14:47:45.022Z,49.25
2023-04-08T14:53:05.268Z,50.22
2023-04-08T14:54:32.828Z,50.19
2023-04-08T14:56:26.648Z,49.24
2023-04-08T14:57:53.049Z,48.80
2023-04-08T14:59:22.881Z,48.27
2023-04-08T15:00:50.383Z,47.91
2023-04-08T15:02:16.360Z,48.16
2023-04-08T15:03:43.842Z,47.83
2023-04-08T15:05:10.153Z,47.96
2023-04-08T15:06:33.773Z,47.78
2023-04-08T15:08:11.861Z,47.25
2023-04-08T15:09:34.814Z,47.35
2023-04-08T15:11:21.197Z,47.38
2023-04-08T15:13:06.700Z,47.66
2023-04-08T15:15:35.078Z,48.11
2023-04-08T15:17:10.438Z,48.34
2023-04-08T15:20:48.083Z,49.28
2023-04-08T15:23:24.143Z,49.59
2023-04-08T15:25:21.736Z,49.22
2023-04-08T15:34:15.603Z,48.88
2023-04-08T15:36:46.235Z,49.02
2023-04-08T15:38:20.909Z,48.95
2023-04-08T18:34:36.792Z,56.05
2023-04-08T18:36:14.983Z,56.00
2023-04-08T18:37:40.074Z,56.18
2023-04-08T18:39:12.323Z,56.23
2023-04-08T18:40:34.851Z,56.39
2023-04-08T18:42:08.666Z,56.20
2023-04-08T18:43:31.511Z,56.39
2023-04-08T18:45:03.483Z,56.11
2023-04-08T18:46:26.459Z,56.16
2023-04-08T18:47:49.295Z,56.27
2023-04-08T18:49:12.190Z,56.43
2023-04-08T18:50:36.008Z,56.45
2023-04-08T18:52:02.527Z,56.52
2023-04-08T18:54:05.979Z,56.95
2023-04-08T18:55:28.639Z,56.82
2023-04-08T18:56:51.004Z,56.70
2023-04-08T18:58:13.892Z,56.75
2023-04-08T18:59:38.966Z,56.73
2023-04-08T19:01:08.157Z,56.74
2023-04-08T19:02:33.640Z,56.84
2023-04-08T19:04:03.015Z,56.98
2023-04-08T19:05:26.623Z,56.94
2023-04-08T19:06:54.012Z,56.73
2023-04-08T19:08:16.542Z,56.90
2023-04-08T19:09:49.013Z,56.96
2023-04-08T19:11:14.116Z,57.15
2023-04-08T19:12:41.178Z,57.37
2023-04-08T19:14:15.837Z,57.31
2023-04-08T19:15:42.197Z,57.33
2023-04-08T19:17:09.780Z,57.59
2023-04-08T19:18:35.032Z,57.60
2023-04-08T19:20:00.118Z,57.37
2023-04-08T19:21:25.791Z,57.41
2023-04-08T19:22:54.091Z,57.28
2023-04-08T19:24:22.972Z,57.31
2023-04-08T19:25:48.580Z,57.55
2023-04-08T19:27:12.336Z,57.49
2023-04-08T19:28:34.689Z,57.64
2023-04-08T19:29:59.825Z,57.40
2023-04-08T19:31:33.518Z,57.53
2023-04-08T19:33:21.143Z,57.60
2023-04-08T19:34:43.367Z,57.69
2023-04-08T19:36:07.566Z,57.51
2023-04-08T19:37:32.434Z,57.89
2023-04-08T19:44:43.192Z,57.76
2023-04-08T19:47:09.444Z,58.00
2023-04-08T19:48:47.552Z,57.90
2023-04-08T19:50:43.397Z,58.19
2023-04-08T19:56:06.443Z,58.17
2023-04-08T20:07:12.016Z,58.49
2023-04-08T20:14:53.422Z,58.50
2023-04-08T22:10:11.202Z,59.95
2023-04-08T22:28:25.054Z,60.14
2023-04-08T23:10:02.132Z,60.54
2023-04-08T23:11:34.072Z,60.64
2023-04-08T23:13:04.351Z,60.76
2023-04-08T23:14:31.437Z,60.70
2023-04-08T23:15:56.424Z,60.92
2023-04-08T23:17:21.352Z,60.87
2023-04-08T23:18:52.628Z,60.89
2023-04-08T23:20:24.255Z,60.94
2023-04-08T23:22:03.908Z,60.85
2023-04-08T23:23:28.359Z,60.81
2023-04-08T23:25:20.622Z,61.05
2023-04-08T23:26:42.272Z,60.95
2023-04-08T23:28:20.688Z,60.70
2023-04-08T23:30:11.760Z,60.67
2023-04-08T23:31:35.181Z,60.65
2023-04-08T23:33:42.206Z,60.68
2023-04-08T23:35:20.511Z,60.70
2023-04-08T23:36:58.932Z,60.65
2023-04-08T23:38:55.477Z,60.91
2023-04-08T23:40:30.148Z,60.67
2023-04-08T23:45:15.707Z,60.61
2023-04-08T23:49:13.346Z,60.79
2023-04-08T23:50:54.451Z,60.79
2023-04-08T23:52:20.163Z,60.70
2023-04-08T23:57:36.104Z,60.53
